Terminal Aerodrome Forecast
Issued by NWS

Home | Current Version | Previous Version | Text Only | Print | Product List | Glossary On
Versions: 1 2 3 4 5 6 7 8 9 10 11 12 13 14 15 16 17 18 19 20 21 22 23 24 25 26 27 28 29 30 31 32 33 34 35 36 37 38
000
FTUS46 KOTX 302102 AAA
TAFCOE
TAF AMD
KCOE 302102Z 3021/3118 03014KT P6SM VCTS SCT060CB BKN100
      TEMPO 3021/3022 VRB12G22KT P6SM TSRA SCT025 BKN060CB
     FM310100 14008KT P6SM SCT070 BKN120
     FM311600 18007KT P6SM BKN100
      AMD LTD TO CLD AND VIS=

USA.gov is the U.S. government's official web portal to all federal, state and local government web resources and services.